sensor_id;sensor_type;location;lat;lon;timestamp;P1;durP1;ratioP1;P2;durP2;ratioP2
1000;SDS011;489;47.806;12.858;2023-07-22T00:01:39;2.03;;;1.90;;
1000;SDS011;489;47.806;12.858;2023-07-22T00:03:42;2.17;;;1.97;;
1000;SDS011;489;47.806;12.858;2023-07-22T00:05:44;4.20;;;2.47;;
1000;SDS011;489;47.806;12.858;2023-07-22T00:07:46;2.20;;;2.00;;
1000;SDS011;489;47.806;12.858;2023-07-22T00:09:48;2.57;;;2.27;;
1000;SDS011;489;47.806;12.858;2023-07-22T00:11:50;2.10;;;1.90;;
1000;SDS011;489;47.806;12.858;2023-07-22T00:13:52;2.50;;;2.13;;
1000;SDS011;489;47.806;12.858;2023-07-22T00:15:54;2.00;;;1.90;;
1000;SDS011;489;47.806;12.858;2023-07-22T00:17:56;1.70;;;1.60;;
1000;SDS011;489;47.806;12.858;2023-07-22T00:20:00;2.40;;;2.20;;
1000;SDS011;489;47.806;12.858;2023-07-22T00:22:05;2.13;;;1.93;;
1000;SDS011;489;47.806;12.858;2023-07-22T00:24:07;2.00;;;1.80;;
1000;SDS011;489;47.806;12.858;2023-07-22T00:26:09;1.87;;;1.77;;
1000;SDS011;489;47.806;12.858;2023-07-22T00:28:11;1.73;;;1.63;;
1000;SDS011;489;47.806;12.858;2023-07-22T00:30:13;2.20;;;2.00;;
1000;SDS011;489;47.806;12.858;2023-07-22T00:32:15;2.10;;;2.00;;
1000;SDS011;489;47.806;12.858;2023-07-22T00:34:17;1.90;;;1.80;;
1000;SDS011;489;47.806;12.858;2023-07-22T00:36:21;1.93;;;1.77;;
1000;SDS011;489;47.806;12.858;2023-07-22T00:38:23;3.30;;;2.00;;
1000;SDS011;489;47.806;12.858;2023-07-22T00:40:25;2.27;;;2.10;;
1000;SDS011;489;47.806;12.858;2023-07-22T00:42:27;1.77;;;1.67;;
1000;SDS011;489;47.806;12.858;2023-07-22T00:44:29;2.17;;;1.90;;
1000;SDS011;489;47.806;12.858;2023-07-22T00:46:31;3.97;;;2.00;;
1000;SDS011;489;47.806;12.858;2023-07-22T00:48:33;1.97;;;1.77;;
1000;SDS011;489;47.806;12.858;2023-07-22T00:50:34;1.70;;;1.60;;
1000;SDS011;489;47.806;12.858;2023-07-22T00:52:38;2.47;;;2.30;;
1000;SDS011;489;47.806;12.858;2023-07-22T00:54:40;2.40;;;1.93;;
1000;SDS011;489;47.806;12.858;2023-07-22T00:56:42;2.20;;;2.00;;
1000;SDS011;489;47.806;12.858;2023-07-22T00:58:45;2.13;;;1.70;;
1000;SDS011;489;47.806;12.858;2023-07-22T01:00:47;1.90;;;1.73;;
1000;SDS011;489;47.806;12.858;2023-07-22T01:02:49;1.97;;;1.80;;
1000;SDS011;489;47.806;12.858;2023-07-22T01:04:51;3.07;;;1.80;;
1000;SDS011;489;47.806;12.858;2023-07-22T01:06:53;1.70;;;1.60;;
1000;SDS011;489;47.806;12.858;2023-07-22T01:08:58;1.87;;;1.77;;
1000;SDS011;489;47.806;12.858;2023-07-22T01:11:00;1.70;;;1.60;;
1000;SDS011;489;47.806;12.858;2023-07-22T01:13:04;2.10;;;1.90;;
1000;SDS011;489;47.806;12.858;2023-07-22T01:15:05;2.10;;;1.90;;
1000;SDS011;489;47.806;12.858;2023-07-22T01:17:09;1.63;;;1.53;;
1000;SDS011;489;47.806;12.858;2023-07-22T01:19:11;2.33;;;1.70;;
1000;SDS011;489;47.806;12.858;2023-07-22T01:21:16;1.63;;;1.53;;
1000;SDS011;489;47.806;12.858;2023-07-22T01:23:21;1.70;;;1.60;;
1000;SDS011;489;47.806;12.858;2023-07-22T01:25:23;2.57;;;2.23;;
1000;SDS011;489;47.806;12.858;2023-07-22T01:27:26;1.70;;;1.60;;
1000;SDS011;489;47.806;12.858;2023-07-22T01:29:28;2.47;;;2.17;;
1000;SDS011;489;47.806;12.858;2023-07-22T01:31:30;1.80;;;1.63;;
1000;SDS011;489;47.806;12.858;2023-07-22T01:33:32;1.80;;;1.70;;
1000;SDS011;489;47.806;12.858;2023-07-22T01:35:33;2.43;;;2.00;;
1000;SDS011;489;47.806;12.858;2023-07-22T01:37:35;2.00;;;1.70;;
1000;SDS011;489;47.806;12.858;2023-07-22T01:39:39;3.83;;;1.80;;
1000;SDS011;489;47.806;12.858;2023-07-22T01:41:42;2.07;;;1.90;;
1000;SDS011;489;47.806;12.858;2023-07-22T01:43:43;1.60;;;1.50;;
1000;SDS011;489;47.806;12.858;2023-07-22T01:45:45;2.13;;;1.93;;
1000;SDS011;489;47.806;12.858;2023-07-22T01:47:47;1.90;;;1.70;;
1000;SDS011;489;47.806;12.858;2023-07-22T01:49:49;2.27;;;1.70;;
1000;SDS011;489;47.806;12.858;2023-07-22T01:51:51;2.03;;;1.90;;
1000;SDS011;489;47.806;12.858;2023-07-22T01:53:53;1.93;;;1.70;;
1000;SDS011;489;47.806;12.858;2023-07-22T01:55:58;2.47;;;2.27;;
1000;SDS011;489;47.806;12.858;2023-07-22T01:58:00;2.00;;;1.80;;
1000;SDS011;489;47.806;12.858;2023-07-22T02:00:02;2.23;;;1.93;;
1000;SDS011;489;47.806;12.858;2023-07-22T02:02:14;2.20;;;2.00;;
1000;SDS011;489;47.806;12.858;2023-07-22T02:04:16;2.23;;;2.03;;
1000;SDS011;489;47.806;12.858;2023-07-22T02:06:18;3.10;;;2.33;;
1000;SDS011;489;47.806;12.858;2023-07-22T02:08:21;3.23;;;2.10;;
1000;SDS011;489;47.806;12.858;2023-07-22T02:10:23;2.27;;;2.07;;
1000;SDS011;489;47.806;12.858;2023-07-22T02:12:26;2.23;;;1.90;;
1000;SDS011;489;47.806;12.858;2023-07-22T02:14:28;2.33;;;2.00;;
1000;SDS011;489;47.806;12.858;2023-07-22T02:16:30;2.00;;;1.67;;
1000;SDS011;489;47.806;12.858;2023-07-22T02:18:32;2.17;;;1.97;;
1000;SDS011;489;47.806;12.858;2023-07-22T02:20:33;2.13;;;1.80;;
1000;SDS011;489;47.806;12.858;2023-07-22T02:22:35;2.70;;;1.90;;
1000;SDS011;489;47.806;12.858;2023-07-22T02:24:37;2.60;;;2.13;;
1000;SDS011;489;47.806;12.858;2023-07-22T02:26:39;2.10;;;1.90;;
1000;SDS011;489;47.806;12.858;2023-07-22T02:28:43;2.90;;;2.07;;
1000;SDS011;489;47.806;12.858;2023-07-22T02:30:45;2.10;;;1.90;;
1000;SDS011;489;47.806;12.858;2023-07-22T02:32:46;2.80;;;1.97;;
1000;SDS011;489;47.806;12.858;2023-07-22T02:34:48;1.93;;;1.80;;
1000;SDS011;489;47.806;12.858;2023-07-22T02:36:50;1.93;;;1.80;;
1000;SDS011;489;47.806;12.858;2023-07-22T02:38:52;1.97;;;1.77;;
1000;SDS011;489;47.806;12.858;2023-07-22T02:40:54;2.37;;;2.00;;
1000;SDS011;489;47.806;12.858;2023-07-22T02:43:00;2.30;;;1.37;;
1000;SDS011;489;47.806;12.858;2023-07-22T02:45:04;2.00;;;1.90;;
1000;SDS011;489;47.806;12.858;2023-07-22T02:47:08;2.40;;;2.20;;
1000;SDS011;489;47.806;12.858;2023-07-22T02:49:10;1.80;;;1.70;;
1000;SDS011;489;47.806;12.858;2023-07-22T02:51:12;2.30;;;2.10;;
1000;SDS011;489;47.806;12.858;2023-07-22T02:53:14;2.00;;;1.80;;
1000;SDS011;489;47.806;12.858;2023-07-22T02:55:16;2.73;;;2.53;;
1000;SDS011;489;47.806;12.858;2023-07-22T02:57:19;4.63;;;2.60;;
1000;SDS011;489;47.806;12.858;2023-07-22T02:59:21;2.43;;;2.23;;
1000;SDS011;489;47.806;12.858;2023-07-22T03:01:25;4.17;;;2.47;;
1000;SDS011;489;47.806;12.858;2023-07-22T03:03:27;2.23;;;2.03;;
1000;SDS011;489;47.806;12.858;2023-07-22T03:05:29;2.90;;;2.43;;
1000;SDS011;489;47.806;12.858;2023-07-22T03:07:32;2.53;;;1.83;;
1000;SDS011;489;47.806;12.858;2023-07-22T03:09:33;2.50;;;2.30;;
1000;SDS011;489;47.806;12.858;2023-07-22T03:11:35;2.60;;;2.30;;
1000;SDS011;489;47.806;12.858;2023-07-22T03:13:37;2.50;;;2.10;;
1000;SDS011;489;47.806;12.858;2023-07-22T03:15:39;2.23;;;2.00;;
1000;SDS011;489;47.806;12.858;2023-07-22T03:17:42;2.50;;;2.30;;
1000;SDS011;489;47.806;12.858;2023-07-22T03:19:44;1.97;;;1.83;;
1000;SDS011;489;47.806;12.858;2023-07-22T03:21:46;2.47;;;1.90;;
1000;SDS011;489;47.806;12.858;2023-07-22T03:23:48;2.67;;;2.47;;
1000;SDS011;489;47.806;12.858;2023-07-22T03:25:51;2.90;;;2.27;;
1000;SDS011;489;47.806;12.858;2023-07-22T03:27:52;3.00;;;2.40;;
1000;SDS011;489;47.806;12.858;2023-07-22T03:29:54;2.33;;;2.13;;
1000;SDS011;489;47.806;12.858;2023-07-22T03:31:56;2.13;;;2.00;;
1000;SDS011;489;47.806;12.858;2023-07-22T03:34:01;2.50;;;2.30;;
1000;SDS011;489;47.806;12.858;2023-07-22T03:36:03;2.10;;;1.90;;
1000;SDS011;489;47.806;12.858;2023-07-22T03:38:05;2.13;;;2.03;;
1000;SDS011;489;47.806;12.858;2023-07-22T03:40:08;2.83;;;2.23;;
1000;SDS011;489;47.806;12.858;2023-07-22T03:42:15;2.67;;;2.43;;
1000;SDS011;489;47.806;12.858;2023-07-22T03:44:17;2.90;;;2.20;;
1000;SDS011;489;47.806;12.858;2023-07-22T03:46:19;2.43;;;2.00;;
1000;SDS011;489;47.806;12.858;2023-07-22T03:48:21;2.30;;;2.10;;
1000;SDS011;489;47.806;12.858;2023-07-22T03:50:24;2.60;;;2.20;;
1000;SDS011;489;47.806;12.858;2023-07-22T03:52:26;2.60;;;2.27;;
1000;SDS011;489;47.806;12.858;2023-07-22T03:54:28;2.70;;;2.50;;
1000;SDS011;489;47.806;12.858;2023-07-22T03:56:30;2.57;;;2.20;;
1000;SDS011;489;47.806;12.858;2023-07-22T03:58:32;2.60;;;2.40;;
1000;SDS011;489;47.806;12.858;2023-07-22T04:00:34;2.57;;;2.37;;
1000;SDS011;489;47.806;12.858;2023-07-22T04:02:36;4.60;;;4.20;;
1000;SDS011;489;47.806;12.858;2023-07-22T04:04:38;4.03;;;3.63;;
1000;SDS011;489;47.806;12.858;2023-07-22T04:06:42;3.60;;;3.30;;
1000;SDS011;489;47.806;12.858;2023-07-22T04:08:44;2.77;;;2.47;;
1000;SDS011;489;47.806;12.858;2023-07-22T04:10:50;2.87;;;2.50;;
1000;SDS011;489;47.806;12.858;2023-07-22T04:12:53;4.07;;;2.60;;
1000;SDS011;489;47.806;12.858;2023-07-22T04:14:55;4.70;;;2.90;;
1000;SDS011;489;47.806;12.858;2023-07-22T04:16:57;2.80;;;2.50;;
1000;SDS011;489;47.806;12.858;2023-07-22T04:18:59;3.57;;;2.80;;
1000;SDS011;489;47.806;12.858;2023-07-22T04:21:02;3.07;;;2.50;;
1000;SDS011;489;47.806;12.858;2023-07-22T04:23:05;2.83;;;2.63;;
1000;SDS011;489;47.806;12.858;2023-07-22T04:25:06;4.00;;;2.97;;
1000;SDS011;489;47.806;12.858;2023-07-22T04:27:09;3.20;;;3.00;;
1000;SDS011;489;47.806;12.858;2023-07-22T04:29:11;2.77;;;2.53;;
1000;SDS011;489;47.806;12.858;2023-07-22T04:31:13;2.80;;;2.40;;
1000;SDS011;489;47.806;12.858;2023-07-22T04:33:15;3.17;;;2.33;;
1000;SDS011;489;47.806;12.858;2023-07-22T04:35:17;3.37;;;3.07;;
1000;SDS011;489;47.806;12.858;2023-07-22T04:37:19;4.70;;;3.03;;
1000;SDS011;489;47.806;12.858;2023-07-22T04:39:22;4.87;;;2.87;;
1000;SDS011;489;47.806;12.858;2023-07-22T04:41:23;3.03;;;2.83;;
1000;SDS011;489;47.806;12.858;2023-07-22T04:43:25;2.60;;;2.40;;
1000;SDS011;489;47.806;12.858;2023-07-22T04:45:27;3.73;;;2.50;;
1000;SDS011;489;47.806;12.858;2023-07-22T04:47:29;3.00;;;2.80;;
1000;SDS011;489;47.806;12.858;2023-07-22T04:49:31;3.00;;;2.57;;
1000;SDS011;489;47.806;12.858;2023-07-22T04:51:33;2.60;;;2.40;;
1000;SDS011;489;47.806;12.858;2023-07-22T04:53:35;2.77;;;2.57;;
1000;SDS011;489;47.806;12.858;2023-07-22T04:55:37;3.00;;;2.80;;
1000;SDS011;489;47.806;12.858;2023-07-22T04:57:40;2.93;;;2.50;;
1000;SDS011;489;47.806;12.858;2023-07-22T04:59:44;2.93;;;2.63;;
1000;SDS011;489;47.806;12.858;2023-07-22T05:01:46;3.33;;;2.40;;
1000;SDS011;489;47.806;12.858;2023-07-22T05:03:48;2.60;;;2.40;;
1000;SDS011;489;47.806;12.858;2023-07-22T05:05:50;4.23;;;2.57;;
1000;SDS011;489;47.806;12.858;2023-07-22T05:07:52;3.27;;;3.07;;
1000;SDS011;489;47.806;12.858;2023-07-22T05:09:54;3.40;;;3.10;;
1000;SDS011;489;47.806;12.858;2023-07-22T05:11:57;5.50;;;3.27;;
1000;SDS011;489;47.806;12.858;2023-07-22T05:13:59;3.40;;;3.10;;
1000;SDS011;489;47.806;12.858;2023-07-22T05:16:00;3.23;;;2.93;;
1000;SDS011;489;47.806;12.858;2023-07-22T05:18:02;3.47;;;2.73;;
1000;SDS011;489;47.806;12.858;2023-07-22T05:20:05;3.27;;;2.97;;
1000;SDS011;489;47.806;12.858;2023-07-22T05:22:10;3.13;;;2.93;;
1000;SDS011;489;47.806;12.858;2023-07-22T05:24:12;4.93;;;3.10;;
1000;SDS011;489;47.806;12.858;2023-07-22T05:26:14;2.90;;;2.60;;
1000;SDS011;489;47.806;12.858;2023-07-22T05:28:18;3.17;;;2.87;;
1000;SDS011;489;47.806;12.858;2023-07-22T05:30:20;3.40;;;2.93;;
1000;SDS011;489;47.806;12.858;2023-07-22T05:32:22;3.50;;;3.20;;
1000;SDS011;489;47.806;12.858;2023-07-22T05:34:24;3.07;;;2.87;;
1000;SDS011;489;47.806;12.858;2023-07-22T05:36:26;3.07;;;2.87;;
1000;SDS011;489;47.806;12.858;2023-07-22T05:38:28;2.90;;;2.60;;
1000;SDS011;489;47.806;12.858;2023-07-22T05:40:31;4.30;;;3.60;;
1000;SDS011;489;47.806;12.858;2023-07-22T05:42:33;3.73;;;3.33;;
1000;SDS011;489;47.806;12.858;2023-07-22T05:44:37;3.73;;;3.40;;
1000;SDS011;489;47.806;12.858;2023-07-22T05:46:38;3.03;;;2.83;;
1000;SDS011;489;47.806;12.858;2023-07-22T05:48:39;3.50;;;3.20;;
1000;SDS011;489;47.806;12.858;2023-07-22T05:50:41;3.27;;;2.97;;
1000;SDS011;489;47.806;12.858;2023-07-22T05:52:44;3.30;;;3.00;;
1000;SDS011;489;47.806;12.858;2023-07-22T05:54:46;2.93;;;2.63;;
1000;SDS011;489;47.806;12.858;2023-07-22T05:56:48;3.03;;;2.80;;
1000;SDS011;489;47.806;12.858;2023-07-22T05:58:50;3.10;;;2.80;;
1000;SDS011;489;47.806;12.858;2023-07-22T06:00:54;3.90;;;3.50;;
1000;SDS011;489;47.806;12.858;2023-07-22T06:02:56;3.30;;;3.00;;
1000;SDS011;489;47.806;12.858;2023-07-22T06:04:58;3.00;;;2.63;;
1000;SDS011;489;47.806;12.858;2023-07-22T06:07:00;3.83;;;3.43;;
1000;SDS011;489;47.806;12.858;2023-07-22T06:09:02;2.90;;;2.70;;
1000;SDS011;489;47.806;12.858;2023-07-22T06:11:05;5.60;;;3.10;;
1000;SDS011;489;47.806;12.858;2023-07-22T06:13:07;3.63;;;3.23;;
1000;SDS011;489;47.806;12.858;2023-07-22T06:15:09;3.60;;;3.30;;
1000;SDS011;489;47.806;12.858;2023-07-22T06:17:12;3.37;;;3.07;;
1000;SDS011;489;47.806;12.858;2023-07-22T06:19:14;2.67;;;2.47;;
1000;SDS011;489;47.806;12.858;2023-07-22T06:21:16;3.20;;;3.00;;
1000;SDS011;489;47.806;12.858;2023-07-22T06:23:18;2.90;;;2.70;;
1000;SDS011;489;47.806;12.858;2023-07-22T06:25:20;5.87;;;3.67;;
1000;SDS011;489;47.806;12.858;2023-07-22T06:27:22;3.50;;;3.20;;
1000;SDS011;489;47.806;12.858;2023-07-22T06:29:24;3.27;;;2.97;;
1000;SDS011;489;47.806;12.858;2023-07-22T06:31:26;5.07;;;3.60;;
1000;SDS011;489;47.806;12.858;2023-07-22T06:33:32;3.90;;;3.57;;
1000;SDS011;489;47.806;12.858;2023-07-22T06:35:34;3.53;;;3.23;;
1000;SDS011;489;47.806;12.858;2023-07-22T06:37:35;3.67;;;3.37;;
1000;SDS011;489;47.806;12.858;2023-07-22T06:39:37;4.13;;;3.73;;
1000;SDS011;489;47.806;12.858;2023-07-22T06:41:38;3.43;;;3.13;;
1000;SDS011;489;47.806;12.858;2023-07-22T06:43:40;3.50;;;3.20;;
1000;SDS011;489;47.806;12.858;2023-07-22T06:45:42;3.50;;;3.20;;
1000;SDS011;489;47.806;12.858;2023-07-22T06:47:44;3.20;;;2.90;;
1000;SDS011;489;47.806;12.858;2023-07-22T06:49:48;3.33;;;3.07;;
1000;SDS011;489;47.806;12.858;2023-07-22T06:51:51;3.13;;;2.93;;
1000;SDS011;489;47.806;12.858;2023-07-22T06:53:52;3.50;;;3.20;;
1000;SDS011;489;47.806;12.858;2023-07-22T06:55:55;3.10;;;2.90;;
1000;SDS011;489;47.806;12.858;2023-07-22T06:57:56;3.03;;;2.83;;
1000;SDS011;489;47.806;12.858;2023-07-22T07:00:00;3.63;;;3.33;;
1000;SDS011;489;47.806;12.858;2023-07-22T07:02:02;3.23;;;3.03;;
1000;SDS011;489;47.806;12.858;2023-07-22T07:04:05;2.90;;;2.70;;
1000;SDS011;489;47.806;12.858;2023-07-22T07:06:08;3.40;;;2.80;;
1000;SDS011;489;47.806;12.858;2023-07-22T07:08:10;3.00;;;2.80;;
1000;SDS011;489;47.806;12.858;2023-07-22T07:10:12;3.40;;;2.70;;
1000;SDS011;489;47.806;12.858;2023-07-22T07:12:13;3.10;;;2.90;;
1000;SDS011;489;47.806;12.858;2023-07-22T07:14:15;2.80;;;2.60;;
1000;SDS011;489;47.806;12.858;2023-07-22T07:16:20;4.73;;;3.30;;
1000;SDS011;489;47.806;12.858;2023-07-22T07:18:22;3.87;;;3.57;;
1000;SDS011;489;47.806;12.858;2023-07-22T07:20:27;3.90;;;3.40;;
1000;SDS011;489;47.806;12.858;2023-07-22T07:22:30;4.20;;;3.90;;
1000;SDS011;489;47.806;12.858;2023-07-22T07:24:32;2.80;;;2.60;;
1000;SDS011;489;47.806;12.858;2023-07-22T07:26:34;3.40;;;3.20;;
1000;SDS011;489;47.806;12.858;2023-07-22T07:28:36;3.30;;;3.00;;
1000;SDS011;489;47.806;12.858;2023-07-22T07:30:38;3.63;;;3.33;;
1000;SDS011;489;47.806;12.858;2023-07-22T07:32:40;4.50;;;3.60;;
1000;SDS011;489;47.806;12.858;2023-07-22T07:34:44;3.40;;;3.17;;
1000;SDS011;489;47.806;12.858;2023-07-22T07:36:46;4.70;;;4.30;;
1000;SDS011;489;47.806;12.858;2023-07-22T07:38:50;3.70;;;3.40;;
1000;SDS011;489;47.806;12.858;2023-07-22T07:40:52;4.10;;;3.70;;
1000;SDS011;489;47.806;12.858;2023-07-22T07:42:53;3.50;;;3.20;;
1000;SDS011;489;47.806;12.858;2023-07-22T07:44:56;3.37;;;3.17;;
1000;SDS011;489;47.806;12.858;2023-07-22T07:46:57;3.87;;;3.47;;
1000;SDS011;489;47.806;12.858;2023-07-22T07:49:00;3.70;;;3.40;;
1000;SDS011;489;47.806;12.858;2023-07-22T07:51:02;3.67;;;3.23;;
1000;SDS011;489;47.806;12.858;2023-07-22T07:53:03;3.70;;;3.40;;
1000;SDS011;489;47.806;12.858;2023-07-22T07:55:07;4.73;;;3.60;;
1000;SDS011;489;47.806;12.858;2023-07-22T07:57:09;4.13;;;3.00;;
1000;SDS011;489;47.806;12.858;2023-07-22T07:59:12;3.10;;;2.80;;
1000;SDS011;489;47.806;12.858;2023-07-22T08:01:14;3.80;;;3.50;;
1000;SDS011;489;47.806;12.858;2023-07-22T08:03:16;4.43;;;3.90;;
1000;SDS011;489;47.806;12.858;2023-07-22T08:05:18;3.40;;;3.10;;
1000;SDS011;489;47.806;12.858;2023-07-22T08:07:20;5.30;;;4.80;;
1000;SDS011;489;47.806;12.858;2023-07-22T08:09:21;4.27;;;3.97;;
1000;SDS011;489;47.806;12.858;2023-07-22T08:11:25;3.70;;;3.40;;
1000;SDS011;489;47.806;12.858;2023-07-22T08:13:26;4.27;;;3.87;;
1000;SDS011;489;47.806;12.858;2023-07-22T08:15:30;3.30;;;3.10;;
1000;SDS011;489;47.806;12.858;2023-07-22T08:17:32;4.00;;;3.60;;
1000;SDS011;489;47.806;12.858;2023-07-22T08:19:34;3.60;;;3.30;;
1000;SDS011;489;47.806;12.858;2023-07-22T08:21:36;3.57;;;3.27;;
1000;SDS011;489;47.806;12.858;2023-07-22T08:23:37;5.00;;;3.80;;
1000;SDS011;489;47.806;12.858;2023-07-22T08:25:39;4.03;;;3.67;;
1000;SDS011;489;47.806;12.858;2023-07-22T08:27:42;4.33;;;4.03;;
1000;SDS011;489;47.806;12.858;2023-07-22T08:29:45;4.50;;;3.73;;
1000;SDS011;489;47.806;12.858;2023-07-22T08:31:47;3.50;;;3.30;;
1000;SDS011;489;47.806;12.858;2023-07-22T08:33:49;3.53;;;3.23;;
1000;SDS011;489;47.806;12.858;2023-07-22T08:35:51;3.50;;;3.20;;
1000;SDS011;489;47.806;12.858;2023-07-22T08:37:54;3.03;;;2.83;;
1000;SDS011;489;47.806;12.858;2023-07-22T08:39:56;3.00;;;2.37;;
1000;SDS011;489;47.806;12.858;2023-07-22T08:41:58;3.43;;;3.07;;
1000;SDS011;489;47.806;12.858;2023-07-22T08:44:02;3.60;;;3.30;;
1000;SDS011;489;47.806;12.858;2023-07-22T08:46:06;3.97;;;3.50;;
1000;SDS011;489;47.806;12.858;2023-07-22T08:48:09;4.30;;;4.00;;
1000;SDS011;489;47.806;12.858;2023-07-22T08:50:11;4.80;;;4.00;;
1000;SDS011;489;47.806;12.858;2023-07-22T08:52:16;4.03;;;3.63;;
1000;SDS011;489;47.806;12.858;2023-07-22T08:54:19;3.40;;;3.10;;
1000;SDS011;489;47.806;12.858;2023-07-22T08:56:21;3.67;;;3.37;;
1000;SDS011;489;47.806;12.858;2023-07-22T08:58:23;3.43;;;3.13;;
1000;SDS011;489;47.806;12.858;2023-07-22T09:00:27;3.20;;;2.97;;
1000;SDS011;489;47.806;12.858;2023-07-22T09:02:29;5.50;;;4.20;;
1000;SDS011;489;47.806;12.858;2023-07-22T09:04:32;3.80;;;3.53;;
1000;SDS011;489;47.806;12.858;2023-07-22T09:06:34;4.23;;;3.83;;
1000;SDS011;489;47.806;12.858;2023-07-22T09:08:37;3.73;;;3.43;;
1000;SDS011;489;47.806;12.858;2023-07-22T09:10:40;4.17;;;3.77;;
1000;SDS011;489;47.806;12.858;2023-07-22T09:12:42;3.20;;;2.97;;
1000;SDS011;489;47.806;12.858;2023-07-22T09:14:44;4.60;;;4.20;;
1000;SDS011;489;47.806;12.858;2023-07-22T09:16:48;2.97;;;2.77;;
1000;SDS011;489;47.806;12.858;2023-07-22T09:18:50;3.53;;;3.20;;
1000;SDS011;489;47.806;12.858;2023-07-22T09:20:51;3.20;;;2.90;;
1000;SDS011;489;47.806;12.858;2023-07-22T09:22:53;3.47;;;3.13;;
1000;SDS011;489;47.806;12.858;2023-07-22T09:24:57;3.83;;;3.53;;
1000;SDS011;489;47.806;12.858;2023-07-22T09:27:14;3.67;;;3.37;;
1000;SDS011;489;47.806;12.858;2023-07-22T09:29:16;3.80;;;3.13;;
1000;SDS011;489;47.806;12.858;2023-07-22T09:31:18;3.60;;;3.30;;
1000;SDS011;489;47.806;12.858;2023-07-22T09:33:22;3.90;;;3.57;;
1000;SDS011;489;47.806;12.858;2023-07-22T09:35:25;3.10;;;2.90;;
1000;SDS011;489;47.806;12.858;2023-07-22T09:37:35;3.33;;;3.10;;
1000;SDS011;489;47.806;12.858;2023-07-22T09:39:37;3.70;;;3.40;;
1000;SDS011;489;47.806;12.858;2023-07-22T09:41:41;3.90;;;3.57;;
1000;SDS011;489;47.806;12.858;2023-07-22T09:43:46;4.13;;;3.73;;
1000;SDS011;489;47.806;12.858;2023-07-22T09:45:48;3.30;;;3.10;;
1000;SDS011;489;47.806;12.858;2023-07-22T09:47:51;4.00;;;3.70;;
1000;SDS011;489;47.806;12.858;2023-07-22T09:49:55;2.80;;;2.60;;
1000;SDS011;489;47.806;12.858;2023-07-22T09:51:56;3.10;;;2.83;;
1000;SDS011;489;47.806;12.858;2023-07-22T09:53:59;3.30;;;3.10;;
1000;SDS011;489;47.806;12.858;2023-07-22T09:56:03;3.20;;;3.00;;
1000;SDS011;489;47.806;12.858;2023-07-22T09:58:05;2.90;;;2.70;;
1000;SDS011;489;47.806;12.858;2023-07-22T10:00:10;3.50;;;3.20;;
1000;SDS011;489;47.806;12.858;2023-07-22T10:02:14;3.53;;;3.20;;
1000;SDS011;489;47.806;12.858;2023-07-22T10:04:20;3.47;;;3.17;;
1000;SDS011;489;47.806;12.858;2023-07-22T10:06:26;3.20;;;3.00;;
1000;SDS011;489;47.806;12.858;2023-07-22T10:08:28;3.20;;;3.00;;
1000;SDS011;489;47.806;12.858;2023-07-22T10:10:32;3.20;;;2.90;;
1000;SDS011;489;47.806;12.858;2023-07-22T10:12:35;4.00;;;3.07;;
1000;SDS011;489;47.806;12.858;2023-07-22T10:14:37;3.30;;;3.00;;
1000;SDS011;489;47.806;12.858;2023-07-22T10:16:39;3.37;;;2.70;;
1000;SDS011;489;47.806;12.858;2023-07-22T10:18:42;4.70;;;3.47;;
1000;SDS011;489;47.806;12.858;2023-07-22T10:20:45;4.10;;;3.67;;
1000;SDS011;489;47.806;12.858;2023-07-22T10:22:49;3.90;;;3.60;;
1000;SDS011;489;47.806;12.858;2023-07-22T10:24:51;3.83;;;3.53;;
1000;SDS011;489;47.806;12.858;2023-07-22T10:26:54;3.73;;;3.40;;
1000;SDS011;489;47.806;12.858;2023-07-22T10:28:56;4.03;;;3.40;;
1000;SDS011;489;47.806;12.858;2023-07-22T10:30:58;3.60;;;3.30;;
1000;SDS011;489;47.806;12.858;2023-07-22T10:33:01;3.10;;;2.90;;
1000;SDS011;489;47.806;12.858;2023-07-22T10:35:03;3.73;;;3.30;;
1000;SDS011;489;47.806;12.858;2023-07-22T10:37:07;3.63;;;3.33;;
1000;SDS011;489;47.806;12.858;2023-07-22T10:39:17;3.37;;;3.10;;
1000;SDS011;489;47.806;12.858;2023-07-22T10:41:26;3.60;;;3.30;;
1000;SDS011;489;47.806;12.858;2023-07-22T10:43:29;4.67;;;3.07;;
1000;SDS011;489;47.806;12.858;2023-07-22T10:45:32;3.47;;;3.17;;
1000;SDS011;489;47.806;12.858;2023-07-22T10:47:35;3.70;;;3.03;;
1000;SDS011;489;47.806;12.858;2023-07-22T10:49:44;3.00;;;2.70;;
1000;SDS011;489;47.806;12.858;2023-07-22T10:51:47;2.60;;;2.40;;
1000;SDS011;489;47.806;12.858;2023-07-22T10:53:50;2.40;;;2.20;;
1000;SDS011;489;47.806;12.858;2023-07-22T10:56:07;2.50;;;2.30;;
1000;SDS011;489;47.806;12.858;2023-07-22T10:58:12;2.40;;;2.20;;
1000;SDS011;489;47.806;12.858;2023-07-22T11:00:17;2.90;;;2.60;;
1000;SDS011;489;47.806;12.858;2023-07-22T11:02:24;2.60;;;2.30;;
1000;SDS011;489;47.806;12.858;2023-07-22T11:04:27;2.70;;;2.47;;
1000;SDS011;489;47.806;12.858;2023-07-22T11:06:32;3.60;;;3.30;;
1000;SDS011;489;47.806;12.858;2023-07-22T11:08:36;2.90;;;2.70;;
1000;SDS011;489;47.806;12.858;2023-07-22T11:10:46;2.93;;;2.73;;
1000;SDS011;489;47.806;12.858;2023-07-22T11:12:55;3.47;;;2.67;;
1000;SDS011;489;47.806;12.858;2023-07-22T11:15:01;3.27;;;3.03;;
1000;SDS011;489;47.806;12.858;2023-07-22T11:17:04;2.90;;;2.60;;
1000;SDS011;489;47.806;12.858;2023-07-22T11:19:08;2.70;;;2.50;;
1000;SDS011;489;47.806;12.858;2023-07-22T11:21:11;4.40;;;3.00;;
1000;SDS011;489;47.806;12.858;2023-07-22T11:23:13;3.20;;;2.50;;
1000;SDS011;489;47.806;12.858;2023-07-22T11:25:18;2.60;;;2.40;;
1000;SDS011;489;47.806;12.858;2023-07-22T11:27:21;2.70;;;2.50;;
1000;SDS011;489;47.806;12.858;2023-07-22T11:29:25;2.77;;;2.57;;
1000;SDS011;489;47.806;12.858;2023-07-22T11:31:30;2.83;;;2.40;;
1000;SDS011;489;47.806;12.858;2023-07-22T11:33:39;2.70;;;2.50;;
1000;SDS011;489;47.806;12.858;2023-07-22T11:35:43;3.17;;;2.87;;
1000;SDS011;489;47.806;12.858;2023-07-22T11:37:45;5.07;;;2.70;;
1000;SDS011;489;47.806;12.858;2023-07-22T11:39:47;2.10;;;1.90;;
1000;SDS011;489;47.806;12.858;2023-07-22T11:41:50;2.37;;;2.27;;
1000;SDS011;489;47.806;12.858;2023-07-22T11:43:52;2.23;;;2.03;;
1000;SDS011;489;47.806;12.858;2023-07-22T11:45:55;3.13;;;2.13;;
1000;SDS011;489;47.806;12.858;2023-07-22T11:47:58;2.90;;;2.60;;
1000;SDS011;489;47.806;12.858;2023-07-22T11:49:59;2.60;;;2.40;;
1000;SDS011;489;47.806;12.858;2023-07-22T11:52:02;2.77;;;2.53;;
1000;SDS011;489;47.806;12.858;2023-07-22T11:54:05;3.13;;;2.83;;
1000;SDS011;489;47.806;12.858;2023-07-22T11:56:09;3.40;;;3.10;;
1000;SDS011;489;47.806;12.858;2023-07-22T11:58:11;3.23;;;2.93;;
1000;SDS011;489;47.806;12.858;2023-07-22T12:00:14;3.03;;;2.70;;
1000;SDS011;489;47.806;12.858;2023-07-22T12:02:19;2.60;;;2.30;;
1000;SDS011;489;47.806;12.858;2023-07-22T12:04:23;2.60;;;2.40;;
1000;SDS011;489;47.806;12.858;2023-07-22T12:06:24;2.70;;;2.50;;
1000;SDS011;489;47.806;12.858;2023-07-22T12:08:27;3.28;;;2.97;;
1000;SDS011;489;47.806;12.858;2023-07-22T12:10:28;2.90;;;2.70;;
1000;SDS011;489;47.806;12.858;2023-07-22T12:12:33;2.93;;;2.73;;
1000;SDS011;489;47.806;12.858;2023-07-22T12:14:35;2.90;;;2.70;;
1000;SDS011;489;47.806;12.858;2023-07-22T12:16:38;2.92;;;2.63;;
1000;SDS011;489;47.806;12.858;2023-07-22T12:18:44;2.70;;;2.50;;
1000;SDS011;489;47.806;12.858;2023-07-22T12:20:48;2.87;;;2.67;;
1000;SDS011;489;47.806;12.858;2023-07-22T12:22:50;2.60;;;2.30;;
1000;SDS011;489;47.806;12.858;2023-07-22T12:24:52;2.67;;;2.33;;
1000;SDS011;489;47.806;12.858;2023-07-22T12:26:55;2.47;;;2.00;;
1000;SDS011;489;47.806;12.858;2023-07-22T12:28:57;2.55;;;2.35;;
1000;SDS011;489;47.806;12.858;2023-07-22T12:30:59;2.70;;;2.33;;
1000;SDS011;489;47.806;12.858;2023-07-22T12:33:01;4.35;;;2.30;;
1000;SDS011;489;47.806;12.858;2023-07-22T12:35:06;2.55;;;2.20;;
1000;SDS011;489;47.806;12.858;2023-07-22T12:37:08;2.95;;;2.47;;
1000;SDS011;489;47.806;12.858;2023-07-22T12:39:10;2.20;;;2.00;;
1000;SDS011;489;47.806;12.858;2023-07-22T12:41:12;2.80;;;2.30;;
1000;SDS011;489;47.806;12.858;2023-07-22T12:43:14;2.30;;;1.90;;